createdAt,value
2023-03-12T00:04:12.276Z,100031.66
2023-03-12T00:13:17.043Z,100029.81
2023-03-12T00:22:20.237Z,100043.59
2023-03-12T00:26:30.869Z,100041.91
2023-03-12T00:30:55.315Z,100046.13
2023-03-12T00:35:27.304Z,100053.13
2023-03-12T00:40:10.357Z,100040.88
2023-03-12T00:44:20.521Z,100043.47
2023-03-12T00:48:35.457Z,100039.03
2023-03-12T00:53:08.398Z,100036.41
2023-03-12T00:57:47.748Z,100033.63
2023-03-12T01:02:25.920Z,100025.97
2023-03-12T01:06:44.374Z,100014.66
2023-03-12T01:11:00.860Z,100012.78
2023-03-12T01:15:11.113Z,100017.09
2023-03-12T01:24:03.554Z,100015.31
2023-03-12T01:28:18.187Z,100020.34
2023-03-12T01:36:49.294Z,100040.22
2023-03-12T01:40:58.906Z,100035.78
2023-03-12T01:45:07.004Z,100048.53
2023-03-12T01:49:35.273Z,100059.63
2023-03-12T02:02:48.104Z,100073.13
2023-03-12T02:07:09.836Z,100080.06
2023-03-12T02:11:13.891Z,100087.81
2023-03-12T02:15:21.717Z,100090.28
2023-03-12T02:19:33.606Z,100099.91
2023-03-12T02:28:07.822Z,100102.06
2023-03-12T02:32:29.466Z,100099.41
2023-03-12T02:36:34.497Z,100112.28
2023-03-12T02:40:51.538Z,100120.78
2023-03-12T02:45:32.631Z,100124.91
2023-03-12T02:49:39.624Z,100128.31
2023-03-12T02:54:38.629Z,100128.44
2023-03-12T02:59:16.250Z,100142.09
2023-03-12T03:03:30.104Z,100142.81
2023-03-12T03:07:47.865Z,100161.75
2023-03-12T03:12:05.277Z,100175.53
2023-03-12T03:16:13.556Z,100184.81
2023-03-12T03:20:18.442Z,100190.75
2023-03-12T03:24:47.959Z,100195.13
2023-03-12T03:29:28.640Z,100199.56
2023-03-12T03:38:25.947Z,100225.84
2023-03-12T03:47:45.639Z,100233.47
2023-03-12T03:52:41.883Z,100237.72
2023-03-12T03:57:35.377Z,100249.72
2023-03-12T04:02:41.794Z,100258.13
2023-03-12T04:07:14.278Z,100259.94
2023-03-12T04:11:32.335Z,100270.03
2023-03-12T04:16:17.489Z,100278.53
2023-03-12T04:41:23.830Z,100305.06
2023-03-12T04:46:32.096Z,100306.66
2023-03-12T04:51:18.470Z,100301.97
2023-03-12T05:02:00.126Z,100339.78
2023-03-12T05:12:04.085Z,100358.25
2023-03-12T05:21:42.840Z,100376.28
2023-03-12T05:26:12.157Z,100393.28
2023-03-12T05:30:37.144Z,100406.13
2023-03-12T05:34:40.370Z,100411.47
2023-03-12T05:38:45.753Z,100424.41
2023-03-12T05:48:21.042Z,100432.66
2023-03-12T05:52:31.185Z,100438.56
2023-03-12T05:57:00.896Z,100460.97
2023-03-12T06:01:24.680Z,100464.41
2023-03-12T06:05:27.778Z,100474.53
2023-03-12T06:15:06.447Z,100505.50
2023-03-12T06:18:37.795Z,100522.31
2023-03-12T06:23:02.812Z,100517.09
2023-03-12T06:27:24.020Z,100527.75
2023-03-12T06:31:37.231Z,100540.72
2023-03-12T06:35:46.733Z,100541.28
2023-03-12T06:39:47.679Z,100549.97
2023-03-12T06:43:49.540Z,100568.03
2023-03-12T06:47:50.498Z,100565.72
2023-03-12T06:51:59.118Z,100568.75
2023-03-12T06:56:00.059Z,100578.41
2023-03-12T07:00:05.112Z,100584.03
2023-03-12T07:04:12.618Z,100580.91
2023-03-12T07:08:19.215Z,100584.06
2023-03-12T07:12:22.197Z,100590.47
2023-03-12T07:16:42.423Z,100594.34
2023-03-12T07:20:48.287Z,100593.63
2023-03-12T07:25:12.473Z,100599.94
2023-03-12T07:29:25.900Z,100609.00
2023-03-12T07:33:36.597Z,100620.75
2023-03-12T07:37:38.464Z,100630.06
2023-03-12T07:41:45.363Z,100633.19
2023-03-12T07:45:57.454Z,100635.06
2023-03-12T07:50:11.164Z,100639.22
2023-03-12T07:54:11.990Z,100634.09
2023-03-12T07:58:19.520Z,100642.00
2023-03-12T08:02:20.593Z,100658.38
2023-03-12T08:06:42.979Z,100676.41
2023-03-12T08:10:44.512Z,100677.59
2023-03-12T08:14:49.151Z,100696.88
2023-03-12T08:18:57.870Z,100697.88
2023-03-12T08:23:01.713Z,100699.38
2023-03-12T08:27:29.771Z,100710.31
2023-03-12T08:36:27.200Z,100730.59
2023-03-12T08:40:30.113Z,100732.25
2023-03-12T08:45:17.958Z,100721.09
2023-03-12T10:11:19.366Z,100791.66
2023-03-12T10:15:35.057Z,100798.69
2023-03-12T10:20:15.392Z,100803.38
2023-03-12T10:24:50.030Z,100804.28
2023-03-12T10:29:07.847Z,100808.50
2023-03-12T10:33:29.198Z,100813.22
2023-03-12T10:37:44.654Z,100808.03
2023-03-12T10:42:01.820Z,100812.97
2023-03-12T10:46:33.968Z,100816.44
2023-03-12T10:50:39.664Z,100813.97
2023-03-12T10:54:45.121Z,100813.28
2023-03-12T10:59:24.245Z,100813.03
2023-03-12T11:03:25.827Z,100808.31
2023-03-12T11:07:45.079Z,100813.78
2023-03-12T11:12:06.668Z,100814.75
2023-03-12T11:16:32.000Z,100809.81
2023-03-12T11:20:37.106Z,100812.97
2023-03-12T11:24:58.491Z,100807.13
2023-03-12T11:29:19.550Z,100812.75
2023-03-12T11:33:51.224Z,100803.94
2023-03-12T11:38:27.318Z,100800.34
2023-03-12T11:43:03.005Z,100812.09
2023-03-12T11:47:44.244Z,100807.72
2023-03-12T11:52:16.155Z,100805.34
2023-03-12T11:57:13.502Z,100794.91
2023-03-12T12:01:43.431Z,100797.09
2023-03-12T12:07:03.940Z,100800.75
2023-03-12T12:17:12.035Z,100807.44
2023-03-12T12:22:03.679Z,100809.06
2023-03-12T12:26:45.180Z,100803.28
2023-03-12T12:31:29.067Z,100803.22
2023-03-12T12:36:04.914Z,100802.44
2023-03-12T12:41:18.244Z,100810.44
2023-03-12T12:51:17.376Z,100819.16
2023-03-12T12:55:55.183Z,100828.81
2023-03-12T13:11:17.137Z,100812.19
2023-03-12T13:20:51.443Z,100831.34
2023-03-12T13:30:25.016Z,100843.66
2023-03-12T13:35:26.354Z,100846.28
2023-03-12T13:40:12.643Z,100847.16
2023-03-12T13:45:12.483Z,100857.66
2023-03-12T13:51:45.429Z,100862.03
2023-03-12T14:00:39.248Z,100863.78
2023-03-12T14:05:23.598Z,100868.84
2023-03-12T14:10:14.886Z,100867.06
2023-03-12T14:15:06.768Z,100875.84
2023-03-12T14:19:40.803Z,100878.41
2023-03-12T14:24:56.787Z,100886.47
2023-03-12T14:29:49.764Z,100883.91
2023-03-12T14:39:53.072Z,100896.94
2023-03-12T14:44:41.777Z,100895.16
2023-03-12T14:59:40.573Z,100910.00
2023-03-12T15:04:32.718Z,100916.97
2023-03-12T15:13:53.356Z,100924.88
2023-03-12T15:18:37.558Z,100932.69
2023-03-12T15:28:48.398Z,100936.03
2023-03-12T15:33:42.872Z,100946.59
2023-03-12T15:43:10.172Z,100964.09
2023-03-12T15:48:03.867Z,100971.03
2023-03-12T15:53:01.167Z,100977.25
2023-03-12T15:57:50.314Z,100996.56
2023-03-12T16:02:23.118Z,100996.63
2023-03-12T16:06:48.359Z,101002.84
2023-03-12T16:16:52.166Z,101019.22
2023-03-12T16:26:30.338Z,101036.94
2023-03-12T16:40:54.830Z,101072.06
2023-03-12T16:50:39.163Z,101085.16
2023-03-12T17:19:10.189Z,101137.31
2023-03-12T17:34:31.770Z,101169.69
2023-03-12T17:39:41.266Z,101172.28
2023-03-12T17:49:43.907Z,101194.72
2023-03-12T18:05:40.118Z,101210.91
2023-03-12T18:11:05.972Z,101213.16
2023-03-12T18:15:59.943Z,101219.97
2023-03-12T18:52:11.895Z,101272.66
2023-03-12T19:03:26.892Z,101284.81
2023-03-12T19:18:15.492Z,101300.66
2023-03-12T19:43:40.983Z,101330.75
2023-03-12T19:48:22.784Z,101347.53
2023-03-12T19:53:18.309Z,101350.75
2023-03-12T19:57:46.163Z,101360.69
2023-03-12T20:02:55.209Z,101374.97
2023-03-12T20:09:01.000Z,101373.66
2023-03-12T20:23:27.929Z,101382.56
2023-03-12T20:53:57.785Z,101425.44
2023-03-12T20:58:41.570Z,101435.97
2023-03-12T21:03:42.609Z,101435.94
2023-03-12T21:08:30.360Z,101438.69
2023-03-12T21:18:39.054Z,101441.91
2023-03-12T21:23:25.337Z,101447.03
2023-03-12T21:28:22.364Z,101450.66
2023-03-12T21:38:19.970Z,101452.25
2023-03-12T21:44:03.300Z,101456.97
2023-03-12T21:48:28.027Z,101459.41
2023-03-12T21:53:37.772Z,101426.00
2023-03-12T22:05:30.381Z,101468.94
2023-03-12T22:43:10.957Z,101501.09
2023-03-12T22:46:27.763Z,101493.91
2023-03-12T23:09:44.473Z,101514.34
2023-03-12T23:14:48.304Z,101526.25
2023-03-12T23:57:38.557Z,101554.16
